Trim Flying Club goes to the Aran Islands

Learn to fly at Trim Flying Club

Rainfall Radar Now

Atlantic Charts Pressure - Today

Atlantic Charts Rainfall - Today

 
 

Atlantic Charts Pressure - Tomorrow

Sunrise Sunset

Click for Dublin, Ireland Forecast

Aviation WX Dublin EIDW

[source: ADDS]
METAR
EIDW 251500Z 11009KT 9999 FEW025 SCT300 24/14 Q1019 NOSIG =
TAF
TAF EIDW 251100Z 2512/2612 08010KT 9999 FEW030 BECMG 2517/2520 VRB03KT BECMG 2606/2609 29010KT FEW015 BKN020 TEMPO 2607/2612 5000 SHRA RA BKN012 =